sensor_id;sensor_type;location;lat;lon;timestamp;pressure;altitude;pressure_sealevel;temperature;humidity
46015;BME280;36844;51.898;-0.874;2023-05-20T00:00:50;101715.56;;;19.66;
46015;BME280;36844;51.898;-0.874;2023-05-20T00:03:17;101716.72;;;19.65;
46015;BME280;36844;51.898;-0.874;2023-05-20T00:05:44;101708.97;;;19.64;
46015;BME280;36844;51.898;-0.874;2023-05-20T00:08:09;101706.69;;;19.62;
46015;BME280;36844;51.898;-0.874;2023-05-20T00:10:35;101710.50;;;19.61;
46015;BME280;36844;51.898;-0.874;2023-05-20T00:13:00;101714.34;;;19.60;
46015;BME280;36844;51.898;-0.874;2023-05-20T00:15:26;101708.19;;;19.60;
46015;BME280;36844;51.898;-0.874;2023-05-20T00:17:51;101712.03;;;19.59;
46015;BME280;36844;51.898;-0.874;2023-05-20T00:20:16;101709.69;;;19.57;
46015;BME280;36844;51.898;-0.874;2023-05-20T00:22:41;101712.78;;;19.56;
46015;BME280;36844;51.898;-0.874;2023-05-20T00:25:07;101706.59;;;19.55;
46015;BME280;36844;51.898;-0.874;2023-05-20T00:27:32;101710.47;;;19.54;
46015;BME280;36844;51.898;-0.874;2023-05-20T00:29:57;101708.13;;;19.53;
46015;BME280;36844;51.898;-0.874;2023-05-20T00:32:23;101710.84;;;19.53;
46015;BME280;36844;51.898;-0.874;2023-05-20T00:34:58;101715.84;;;19.51;
46015;BME280;36844;51.898;-0.874;2023-05-20T00:37:23;101717.75;;;19.50;
46015;BME280;36844;51.898;-0.874;2023-05-20T00:39:49;101718.16;;;19.49;
46015;BME280;36844;51.898;-0.874;2023-05-20T00:42:21;101711.94;;;19.48;
46015;BME280;36844;51.898;-0.874;2023-05-20T00:44:46;101715.03;;;19.47;
46015;BME280;36844;51.898;-0.874;2023-05-20T00:47:11;101710.78;;;19.46;
46015;BME280;36844;51.898;-0.874;2023-05-20T00:49:37;101707.31;;;19.45;
46015;BME280;36844;51.898;-0.874;2023-05-20T00:52:02;101705.75;;;19.44;
46015;BME280;36844;51.898;-0.874;2023-05-20T00:54:27;101707.66;;;19.44;
46015;BME280;36844;51.898;-0.874;2023-05-20T00:56:53;101713.47;;;19.42;
46015;BME280;36844;51.898;-0.874;2023-05-20T00:59:18;101701.09;;;19.41;
46015;BME280;36844;51.898;-0.874;2023-05-20T01:01:43;101710.34;;;19.40;
46015;BME280;36844;51.898;-0.874;2023-05-20T01:04:09;101699.53;;;19.40;
46015;BME280;36844;51.898;-0.874;2023-05-20T01:06:34;101698.78;;;19.40;
46015;BME280;36844;51.898;-0.874;2023-05-20T01:09:01;101694.88;;;19.37;
46015;BME280;36844;51.898;-0.874;2023-05-20T01:11:28;101696.78;;;19.37;
46015;BME280;36844;51.898;-0.874;2023-05-20T01:13:56;101687.94;;;19.36;
46015;BME280;36844;51.898;-0.874;2023-05-20T01:16:22;101680.22;;;19.35;
46015;BME280;36844;51.898;-0.874;2023-05-20T01:18:48;101682.13;;;19.34;
46015;BME280;36844;51.898;-0.874;2023-05-20T01:21:14;101684.81;;;19.34;
46015;BME280;36844;51.898;-0.874;2023-05-20T01:23:41;101683.25;;;19.33;
46015;BME280;36844;51.898;-0.874;2023-05-20T01:26:06;101679.03;;;19.32;
46015;BME280;36844;51.898;-0.874;2023-05-20T01:28:32;101683.66;;;19.32;
46015;BME280;36844;51.898;-0.874;2023-05-20T01:30:59;101690.19;;;19.31;
46015;BME280;36844;51.898;-0.874;2023-05-20T01:33:25;101682.47;;;19.29;
46015;BME280;36844;51.898;-0.874;2023-05-20T01:35:52;101684.41;;;19.29;
46015;BME280;36844;51.898;-0.874;2023-05-20T01:38:17;101689.00;;;19.28;
46015;BME280;36844;51.898;-0.874;2023-05-20T01:40:43;101685.56;;;19.28;
46015;BME280;36844;51.898;-0.874;2023-05-20T01:43:08;101678.59;;;19.27;
46015;BME280;36844;51.898;-0.874;2023-05-20T01:45:34;101683.25;;;19.26;
46015;BME280;36844;51.898;-0.874;2023-05-20T01:47:59;101680.53;;;19.26;
46015;BME280;36844;51.898;-0.874;2023-05-20T01:50:25;101674.69;;;19.24;
46015;BME280;36844;51.898;-0.874;2023-05-20T01:52:50;101671.25;;;19.24;
46015;BME280;36844;51.898;-0.874;2023-05-20T01:55:16;101669.66;;;19.23;
46015;BME280;36844;51.898;-0.874;2023-05-20T01:57:41;101663.50;;;19.22;
46015;BME280;36844;51.898;-0.874;2023-05-20T02:00:06;101668.50;;;19.20;
46015;BME280;36844;51.898;-0.874;2023-05-20T02:02:32;101672.75;;;19.21;
46015;BME280;36844;51.898;-0.874;2023-05-20T02:04:57;101665.81;;;19.20;
46015;BME280;36844;51.898;-0.874;2023-05-20T02:07:22;101665.03;;;19.20;
46015;BME280;36844;51.898;-0.874;2023-05-20T02:09:47;101661.91;;;19.18;
46015;BME280;36844;51.898;-0.874;2023-05-20T02:12:13;101659.22;;;19.18;
46015;BME280;36844;51.898;-0.874;2023-05-20T02:14:45;101655.72;;;19.17;
46015;BME280;36844;51.898;-0.874;2023-05-20T02:17:10;101646.09;;;19.16;
46015;BME280;36844;51.898;-0.874;2023-05-20T02:19:36;101648.03;;;19.16;
46015;BME280;36844;51.898;-0.874;2023-05-20T02:22:01;101639.16;;;19.15;
46015;BME280;36844;51.898;-0.874;2023-05-20T02:24:26;101649.16;;;19.15;
46015;BME280;36844;51.898;-0.874;2023-05-20T02:26:51;101646.03;;;19.13;
46015;BME280;36844;51.898;-0.874;2023-05-20T02:29:18;101640.63;;;19.13;
46015;BME280;36844;51.898;-0.874;2023-05-20T02:31:46;101636.44;;;19.12;
46015;BME280;36844;51.898;-0.874;2023-05-20T02:34:11;101645.31;;;19.12;
46015;BME280;36844;51.898;-0.874;2023-05-20T02:36:36;101648.38;;;19.11;
46015;BME280;36844;51.898;-0.874;2023-05-20T02:39:01;101646.00;;;19.09;
46015;BME280;36844;51.898;-0.874;2023-05-20T02:41:27;101642.59;;;19.09;
46015;BME280;36844;51.898;-0.874;2023-05-20T02:43:52;101645.63;;;19.07;
46015;BME280;36844;51.898;-0.874;2023-05-20T02:46:18;101648.34;;;19.07;
46015;BME280;36844;51.898;-0.874;2023-05-20T02:48:44;101642.94;;;19.07;
46015;BME280;36844;51.898;-0.874;2023-05-20T02:51:09;101647.16;;;19.05;
46015;BME280;36844;51.898;-0.874;2023-05-20T02:53:35;101641.78;;;19.05;
46015;BME280;36844;51.898;-0.874;2023-05-20T02:56:01;101647.53;;;19.03;
46015;BME280;36844;51.898;-0.874;2023-05-20T02:58:27;101639.41;;;19.03;
46015;BME280;36844;51.898;-0.874;2023-05-20T03:00:53;101649.44;;;19.03;
46015;BME280;36844;51.898;-0.874;2023-05-20T03:03:18;101645.94;;;19.02;
46015;BME280;36844;51.898;-0.874;2023-05-20T03:05:43;101653.31;;;19.02;
46015;BME280;36844;51.898;-0.874;2023-05-20T03:08:10;101644.41;;;19.01;
46015;BME280;36844;51.898;-0.874;2023-05-20T03:10:35;101642.09;;;19.00;
46015;BME280;36844;51.898;-0.874;2023-05-20T03:13:01;101644.00;;;18.99;
46015;BME280;36844;51.898;-0.874;2023-05-20T03:15:26;101641.31;;;18.99;
46015;BME280;36844;51.898;-0.874;2023-05-20T03:17:52;101632.84;;;18.97;
46015;BME280;36844;51.898;-0.874;2023-05-20T03:20:17;101638.22;;;18.97;
46015;BME280;36844;51.898;-0.874;2023-05-20T03:22:42;101630.47;;;18.96;
46015;BME280;36844;51.898;-0.874;2023-05-20T03:25:07;101630.47;;;18.96;
46015;BME280;36844;51.898;-0.874;2023-05-20T03:27:33;101631.63;;;18.95;
46015;BME280;36844;51.898;-0.874;2023-05-20T03:30:00;101635.09;;;18.95;
46015;BME280;36844;51.898;-0.874;2023-05-20T03:32:26;101633.56;;;18.94;
46015;BME280;36844;51.898;-0.874;2023-05-20T03:34:51;101629.31;;;18.93;
46015;BME280;36844;51.898;-0.874;2023-05-20T03:37:16;101632.00;;;18.93;
46015;BME280;36844;51.898;-0.874;2023-05-20T03:39:41;101635.84;;;18.92;
46015;BME280;36844;51.898;-0.874;2023-05-20T03:42:07;101636.22;;;18.91;
46015;BME280;36844;51.898;-0.874;2023-05-20T03:44:32;101640.84;;;18.90;
46015;BME280;36844;51.898;-0.874;2023-05-20T03:46:57;101631.97;;;18.90;
46015;BME280;36844;51.898;-0.874;2023-05-20T03:49:22;101628.50;;;18.89;
46015;BME280;36844;51.898;-0.874;2023-05-20T03:51:47;101629.63;;;18.88;
46015;BME280;36844;51.898;-0.874;2023-05-20T03:54:13;101626.94;;;18.88;
46015;BME280;36844;51.898;-0.874;2023-05-20T03:56:40;101629.63;;;18.88;
46015;BME280;36844;51.898;-0.874;2023-05-20T03:59:05;101628.09;;;18.87;
46015;BME280;36844;51.898;-0.874;2023-05-20T04:01:31;101623.06;;;18.86;
46015;BME280;36844;51.898;-0.874;2023-05-20T04:03:56;101626.53;;;18.86;
46015;BME280;36844;51.898;-0.874;2023-05-20T04:06:21;101623.06;;;18.86;
46015;BME280;36844;51.898;-0.874;2023-05-20T04:08:46;101627.69;;;18.85;
46015;BME280;36844;51.898;-0.874;2023-05-20T04:11:12;101624.22;;;18.85;
46015;BME280;36844;51.898;-0.874;2023-05-20T04:13:37;101623.44;;;18.84;
46015;BME280;36844;51.898;-0.874;2023-05-20T04:16:02;101625.38;;;18.84;
46015;BME280;36844;51.898;-0.874;2023-05-20T04:18:29;101616.47;;;18.83;
46015;BME280;36844;51.898;-0.874;2023-05-20T04:20:55;101623.81;;;18.83;
46015;BME280;36844;51.898;-0.874;2023-05-20T04:23:21;101625.72;;;18.82;
46015;BME280;36844;51.898;-0.874;2023-05-20T04:25:46;101620.72;;;18.81;
46015;BME280;36844;51.898;-0.874;2023-05-20T04:28:12;101624.22;;;18.81;
46015;BME280;36844;51.898;-0.874;2023-05-20T04:30:40;101630.75;;;18.80;
46015;BME280;36844;51.898;-0.874;2023-05-20T04:33:06;101631.09;;;18.78;
46015;BME280;36844;51.898;-0.874;2023-05-20T04:35:31;101633.03;;;18.78;
46015;BME280;36844;51.898;-0.874;2023-05-20T04:37:58;101625.69;;;18.78;
46015;BME280;36844;51.898;-0.874;2023-05-20T04:40:25;101624.16;;;18.77;
46015;BME280;36844;51.898;-0.874;2023-05-20T04:42:51;101622.59;;;18.77;
46015;BME280;36844;51.898;-0.874;2023-05-20T04:45:16;101621.81;;;18.76;
46015;BME280;36844;51.898;-0.874;2023-05-20T04:47:42;101621.81;;;18.76;
46015;BME280;36844;51.898;-0.874;2023-05-20T04:50:09;101625.66;;;18.75;
46015;BME280;36844;51.898;-0.874;2023-05-20T04:52:38;101627.22;;;18.76;
46015;BME280;36844;51.898;-0.874;2023-05-20T04:55:04;101620.25;;;18.75;
46015;BME280;36844;51.898;-0.874;2023-05-20T04:57:29;101617.19;;;18.73;
46015;BME280;36844;51.898;-0.874;2023-05-20T04:59:55;101622.16;;;18.74;
46015;BME280;36844;51.898;-0.874;2023-05-20T05:02:23;101625.28;;;18.73;
46015;BME280;36844;51.898;-0.874;2023-05-20T05:04:48;101624.50;;;18.72;
46015;BME280;36844;51.898;-0.874;2023-05-20T05:07:13;101623.72;;;18.72;
46015;BME280;36844;51.898;-0.874;2023-05-20T05:09:39;101627.53;;;18.71;
46015;BME280;36844;51.898;-0.874;2023-05-20T05:12:04;101630.25;;;18.71;
46015;BME280;36844;51.898;-0.874;2023-05-20T05:14:29;101630.25;;;18.71;
46015;BME280;36844;51.898;-0.874;2023-05-20T05:16:55;101621.34;;;18.70;
46015;BME280;36844;51.898;-0.874;2023-05-20T05:19:20;101619.84;;;18.69;
46015;BME280;36844;51.898;-0.874;2023-05-20T05:21:46;101624.47;;;18.69;
46015;BME280;36844;51.898;-0.874;2023-05-20T05:24:11;101625.59;;;18.68;
46015;BME280;36844;51.898;-0.874;2023-05-20T05:26:37;101625.59;;;18.68;
46015;BME280;36844;51.898;-0.874;2023-05-20T05:29:02;101624.03;;;18.67;
46015;BME280;36844;51.898;-0.874;2023-05-20T05:31:27;101622.09;;;18.67;
46015;BME280;36844;51.898;-0.874;2023-05-20T05:33:52;101621.31;;;18.67;
46015;BME280;36844;51.898;-0.874;2023-05-20T05:36:17;101623.28;;;18.66;
46015;BME280;36844;51.898;-0.874;2023-05-20T05:38:43;101627.13;;;18.65;
46015;BME280;36844;51.898;-0.874;2023-05-20T05:41:08;101622.50;;;18.66;
46015;BME280;36844;51.898;-0.874;2023-05-20T05:43:33;101616.34;;;18.65;
46015;BME280;36844;51.898;-0.874;2023-05-20T05:45:59;101629.03;;;18.65;
46015;BME280;36844;51.898;-0.874;2023-05-20T05:48:24;101630.97;;;18.64;
46015;BME280;36844;51.898;-0.874;2023-05-20T05:50:49;101624.44;;;18.65;
46015;BME280;36844;51.898;-0.874;2023-05-20T05:53:14;101629.03;;;18.65;
46015;BME280;36844;51.898;-0.874;2023-05-20T05:55:40;101629.41;;;18.67;
46015;BME280;36844;51.898;-0.874;2023-05-20T05:58:05;101624.03;;;18.67;
46015;BME280;36844;51.898;-0.874;2023-05-20T06:00:30;101628.28;;;18.68;
46015;BME280;36844;51.898;-0.874;2023-05-20T06:02:55;101628.28;;;18.68;
46015;BME280;36844;51.898;-0.874;2023-05-20T06:05:21;101635.25;;;18.69;
46015;BME280;36844;51.898;-0.874;2023-05-20T06:07:46;101624.84;;;18.71;
46015;BME280;36844;51.898;-0.874;2023-05-20T06:10:11;101632.59;;;18.72;
46015;BME280;36844;51.898;-0.874;2023-05-20T06:12:36;101620.25;;;18.75;
46015;BME280;36844;51.898;-0.874;2023-05-20T06:15:02;101627.22;;;18.76;
46015;BME280;36844;51.898;-0.874;2023-05-20T06:17:27;101620.28;;;18.78;
46015;BME280;36844;51.898;-0.874;2023-05-20T06:19:52;101624.22;;;18.81;
46015;BME280;36844;51.898;-0.874;2023-05-20T06:22:17;101624.59;;;18.83;
46015;BME280;36844;51.898;-0.874;2023-05-20T06:24:43;101613.41;;;18.85;
46015;BME280;36844;51.898;-0.874;2023-05-20T06:27:08;101619.59;;;18.85;
46015;BME280;36844;51.898;-0.874;2023-05-20T06:29:33;101607.63;;;18.86;
46015;BME280;36844;51.898;-0.874;2023-05-20T06:31:58;101608.81;;;18.89;
46015;BME280;36844;51.898;-0.874;2023-05-20T06:34:23;101605.75;;;18.90;
46015;BME280;36844;51.898;-0.874;2023-05-20T06:36:49;101606.16;;;18.92;
46015;BME280;36844;51.898;-0.874;2023-05-20T06:39:14;101609.63;;;18.93;
46015;BME280;36844;51.898;-0.874;2023-05-20T06:41:39;101608.09;;;18.95;
46015;BME280;36844;51.898;-0.874;2023-05-20T06:44:05;101603.47;;;18.96;
46015;BME280;36844;51.898;-0.874;2023-05-20T06:46:30;101612.34;;;18.96;
46015;BME280;36844;51.898;-0.874;2023-05-20T06:48:56;101606.59;;;18.98;
46015;BME280;36844;51.898;-0.874;2023-05-20T06:51:21;101614.31;;;18.99;
46015;BME280;36844;51.898;-0.874;2023-05-20T06:53:46;101611.59;;;18.99;
46015;BME280;36844;51.898;-0.874;2023-05-20T06:56:11;101606.59;;;19.01;
46015;BME280;36844;51.898;-0.874;2023-05-20T06:58:37;101603.16;;;19.01;
46015;BME280;36844;51.898;-0.874;2023-05-20T07:01:02;101602.00;;;19.02;
46015;BME280;36844;51.898;-0.874;2023-05-20T07:03:27;101603.53;;;19.03;
46015;BME280;36844;51.898;-0.874;2023-05-20T07:05:52;101604.31;;;19.03;
46015;BME280;36844;51.898;-0.874;2023-05-20T07:08:18;101607.78;;;19.04;
46015;BME280;36844;51.898;-0.874;2023-05-20T07:10:43;101599.69;;;19.04;
46015;BME280;36844;51.898;-0.874;2023-05-20T07:13:09;101605.09;;;19.04;
46015;BME280;36844;51.898;-0.874;2023-05-20T07:15:34;101600.47;;;19.04;
46015;BME280;36844;51.898;-0.874;2023-05-20T07:17:59;101616.69;;;19.04;
46015;BME280;36844;51.898;-0.874;2023-05-20T07:20:25;101601.25;;;19.05;
46015;BME280;36844;51.898;-0.874;2023-05-20T07:22:50;101602.00;;;19.05;
46015;BME280;36844;51.898;-0.874;2023-05-20T07:25:15;101600.06;;;19.06;
46015;BME280;36844;51.898;-0.874;2023-05-20T07:27:40;101599.31;;;19.05;
46015;BME280;36844;51.898;-0.874;2023-05-20T07:30:06;101596.63;;;19.05;
46015;BME280;36844;51.898;-0.874;2023-05-20T07:32:31;101605.13;;;19.07;
46015;BME280;36844;51.898;-0.874;2023-05-20T07:34:56;101597.03;;;19.07;
46015;BME280;36844;51.898;-0.874;2023-05-20T07:37:22;101591.97;;;19.06;
46015;BME280;36844;51.898;-0.874;2023-05-20T07:39:47;101594.31;;;19.07;
46015;BME280;36844;51.898;-0.874;2023-05-20T07:42:12;101583.50;;;19.07;
46015;BME280;36844;51.898;-0.874;2023-05-20T07:44:37;101584.31;;;19.08;
46015;BME280;36844;51.898;-0.874;2023-05-20T07:47:03;101585.88;;;19.09;
46015;BME280;36844;51.898;-0.874;2023-05-20T07:49:28;101587.38;;;19.10;
46015;BME280;36844;51.898;-0.874;2023-05-20T07:51:53;101577.34;;;19.10;
46015;BME280;36844;51.898;-0.874;2023-05-20T07:54:18;101588.16;;;19.10;
46015;BME280;36844;51.898;-0.874;2023-05-20T07:56:44;101587.03;;;19.11;
46015;BME280;36844;51.898;-0.874;2023-05-20T07:59:09;101583.91;;;19.13;
46015;BME280;36844;51.898;-0.874;2023-05-20T08:01:34;101585.09;;;19.12;
46015;BME280;36844;51.898;-0.874;2023-05-20T08:04:00;101582.00;;;19.13;
46015;BME280;36844;51.898;-0.874;2023-05-20T08:06:25;101582.78;;;19.14;
46015;BME280;36844;51.898;-0.874;2023-05-20T08:08:51;101571.63;;;19.15;
46015;BME280;36844;51.898;-0.874;2023-05-20T08:11:18;101575.88;;;19.16;
46015;BME280;36844;51.898;-0.874;2023-05-20T08:13:43;101574.31;;;19.15;
46015;BME280;36844;51.898;-0.874;2023-05-20T08:16:09;101579.31;;;19.17;
46015;BME280;36844;51.898;-0.874;2023-05-20T08:18:34;101572.00;;;19.17;
46015;BME280;36844;51.898;-0.874;2023-05-20T08:21:03;101579.75;;;19.19;
46015;BME280;36844;51.898;-0.874;2023-05-20T08:23:29;101573.56;;;19.18;
46015;BME280;36844;51.898;-0.874;2023-05-20T08:25:54;101568.56;;;19.20;
46015;BME280;36844;51.898;-0.874;2023-05-20T08:28:19;101565.88;;;19.20;
46015;BME280;36844;51.898;-0.874;2023-05-20T08:30:45;101565.88;;;19.20;
46015;BME280;36844;51.898;-0.874;2023-05-20T08:33:12;101568.19;;;19.22;
46015;BME280;36844;51.898;-0.874;2023-05-20T08:35:37;101570.09;;;19.21;
46015;BME280;36844;51.898;-0.874;2023-05-20T08:38:04;101563.56;;;19.22;
46015;BME280;36844;51.898;-0.874;2023-05-20T08:40:29;101565.47;;;19.22;
46015;BME280;36844;51.898;-0.874;2023-05-20T08:42:55;101565.47;;;19.22;
46015;BME280;36844;51.898;-0.874;2023-05-20T08:45:22;101558.91;;;19.23;
46015;BME280;36844;51.898;-0.874;2023-05-20T08:47:51;101565.09;;;19.23;
46015;BME280;36844;51.898;-0.874;2023-05-20T08:50:17;101564.31;;;19.23;
46015;BME280;36844;51.898;-0.874;2023-05-20T08:52:45;101566.63;;;19.24;
46015;BME280;36844;51.898;-0.874;2023-05-20T08:55:13;101561.22;;;19.24;
46015;BME280;36844;51.898;-0.874;2023-05-20T08:57:38;101563.59;;;19.26;
46015;BME280;36844;51.898;-0.874;2023-05-20T09:00:06;101556.63;;;19.25;
46015;BME280;36844;51.898;-0.874;2023-05-20T09:02:37;101562.00;;;19.25;
46015;BME280;36844;51.898;-0.874;2023-05-20T09:05:02;101560.09;;;19.25;
46015;BME280;36844;51.898;-0.874;2023-05-20T09:07:29;101545.47;;;19.26;
46015;BME280;36844;51.898;-0.874;2023-05-20T09:09:54;101558.19;;;19.26;
46015;BME280;36844;51.898;-0.874;2023-05-20T09:12:20;101555.09;;;19.27;
46015;BME280;36844;51.898;-0.874;2023-05-20T09:14:45;101550.88;;;19.26;
46015;BME280;36844;51.898;-0.874;2023-05-20T09:17:11;101543.50;;;19.27;
46015;BME280;36844;51.898;-0.874;2023-05-20T09:19:36;101535.03;;;19.28;
46015;BME280;36844;51.898;-0.874;2023-05-20T09:22:02;101537.72;;;19.28;
46015;BME280;36844;51.898;-0.874;2023-05-20T09:24:27;101534.63;;;19.30;
46015;BME280;36844;51.898;-0.874;2023-05-20T09:26:52;101533.88;;;19.29;
46015;BME280;36844;51.898;-0.874;2023-05-20T09:29:18;101536.59;;;19.29;
46015;BME280;36844;51.898;-0.874;2023-05-20T09:31:45;101535.41;;;19.30;
46015;BME280;36844;51.898;-0.874;2023-05-20T09:34:11;101530.81;;;19.31;
46015;BME280;36844;51.898;-0.874;2023-05-20T09:36:36;101538.53;;;19.32;
46015;BME280;36844;51.898;-0.874;2023-05-20T09:39:03;101534.28;;;19.31;
46015;BME280;36844;51.898;-0.874;2023-05-20T09:41:33;101529.66;;;19.32;
46015;BME280;36844;51.898;-0.874;2023-05-20T09:43:59;101533.13;;;19.32;
46015;BME280;36844;51.898;-0.874;2023-05-20T09:46:25;101533.91;;;19.33;
46015;BME280;36844;51.898;-0.874;2023-05-20T09:48:50;101533.53;;;19.34;
46015;BME280;36844;51.898;-0.874;2023-05-20T09:51:16;101528.13;;;19.34;
46015;BME280;36844;51.898;-0.874;2023-05-20T09:53:42;101530.03;;;19.34;
46015;BME280;36844;51.898;-0.874;2023-05-20T09:56:07;101520.41;;;19.33;
46015;BME280;36844;51.898;-0.874;2023-05-20T09:58:32;101523.84;;;19.33;
46015;BME280;36844;51.898;-0.874;2023-05-20T10:00:59;101531.59;;;19.31;
46015;BME280;36844;51.898;-0.874;2023-05-20T10:03:25;101526.53;;;19.30;
46015;BME280;36844;51.898;-0.874;2023-05-20T10:06:04;101527.69;;;19.29;
46015;BME280;36844;51.898;-0.874;2023-05-20T10:21:23;101507.63;;;19.26;
46015;BME280;36844;51.898;-0.874;2023-05-20T10:23:49;101508.78;;;19.25;
46015;BME280;36844;51.898;-0.874;2023-05-20T10:26:14;101509.56;;;19.26;
46015;BME280;36844;51.898;-0.874;2023-05-20T10:28:40;101505.69;;;19.27;
46015;BME280;36844;51.898;-0.874;2023-05-20T10:31:20;101504.94;;;19.26;
46015;BME280;36844;51.898;-0.874;2023-05-20T10:33:45;101514.19;;;19.25;
46015;BME280;36844;51.898;-0.874;2023-05-20T10:36:26;101506.44;;;19.24;
46015;BME280;36844;51.898;-0.874;2023-05-20T10:38:56;101510.28;;;19.23;
46015;BME280;36844;51.898;-0.874;2023-05-20T10:41:23;101502.56;;;19.21;
46015;BME280;36844;51.898;-0.874;2023-05-20T10:43:58;101500.66;;;19.22;
46015;BME280;36844;51.898;-0.874;2023-05-20T10:46:23;101497.94;;;19.22;
46015;BME280;36844;51.898;-0.874;2023-05-20T10:48:48;101492.56;;;19.22;
46015;BME280;36844;51.898;-0.874;2023-05-20T10:51:13;101487.94;;;19.22;
46015;BME280;36844;51.898;-0.874;2023-05-20T10:53:40;101490.63;;;19.22;
46015;BME280;36844;51.898;-0.874;2023-05-20T10:56:05;101485.22;;;19.22;
46015;BME280;36844;51.898;-0.874;2023-05-20T10:58:40;101476.75;;;19.24;
46015;BME280;36844;51.898;-0.874;2023-05-20T11:01:05;101487.53;;;19.24;
46015;BME280;36844;51.898;-0.874;2023-05-20T11:03:30;101479.44;;;19.24;
46015;BME280;36844;51.898;-0.874;2023-05-20T11:05:57;101473.25;;;19.23;
46015;BME280;36844;51.898;-0.874;2023-05-20T11:08:22;101474.03;;;19.24;
46015;BME280;36844;51.898;-0.874;2023-05-20T11:10:51;101469.38;;;19.24;
46015;BME280;36844;51.898;-0.874;2023-05-20T11:13:16;101470.94;;;19.25;
46015;BME280;36844;51.898;-0.874;2023-05-20T11:15:42;101470.16;;;19.25;
46015;BME280;36844;51.898;-0.874;2023-05-20T11:18:09;101475.56;;;19.25;
46015;BME280;36844;51.898;-0.874;2023-05-20T11:20:34;101464.00;;;19.24;
46015;BME280;36844;51.898;-0.874;2023-05-20T11:23:00;101469.03;;;19.26;
46015;BME280;36844;51.898;-0.874;2023-05-20T11:25:26;101466.34;;;19.26;
46015;BME280;36844;51.898;-0.874;2023-05-20T11:27:52;101456.31;;;19.26;
46015;BME280;36844;51.898;-0.874;2023-05-20T11:30:17;101458.22;;;19.26;
46015;BME280;36844;51.898;-0.874;2023-05-20T11:32:43;101457.06;;;19.27;
46015;BME280;36844;51.898;-0.874;2023-05-20T11:35:24;101453.22;;;19.28;
46015;BME280;36844;51.898;-0.874;2023-05-20T11:38:08;101457.06;;;19.27;
46015;BME280;36844;51.898;-0.874;2023-05-20T11:40:34;101457.06;;;19.27;
46015;BME280;36844;51.898;-0.874;2023-05-20T11:43:00;101447.81;;;19.28;
46015;BME280;36844;51.898;-0.874;2023-05-20T11:45:26;101445.13;;;19.28;
46015;BME280;36844;51.898;-0.874;2023-05-20T11:48:01;101444.34;;;19.27;
46015;BME280;36844;51.898;-0.874;2023-05-20T11:50:27;101440.47;;;19.28;
46015;BME280;36844;51.898;-0.874;2023-05-20T11:52:58;101433.53;;;19.27;
46015;BME280;36844;51.898;-0.874;2023-05-20T11:55:24;101430.44;;;19.29;
46015;BME280;36844;51.898;-0.874;2023-05-20T11:57:50;101426.22;;;19.28;
46015;BME280;36844;51.898;-0.874;2023-05-20T12:00:16;101427.75;;;19.29;
46015;BME280;36844;51.898;-0.874;2023-05-20T12:02:41;101425.03;;;19.29;
46015;BME280;36844;51.898;-0.874;2023-05-20T12:05:07;101427.75;;;19.29;
46015;BME280;36844;51.898;-0.874;2023-05-20T12:07:32;101430.44;;;19.29;
46015;BME280;36844;51.898;-0.874;2023-05-20T12:09:57;101425.81;;;19.29;
46015;BME280;36844;51.898;-0.874;2023-05-20T12:12:22;101426.56;;;19.30;
46015;BME280;36844;51.898;-0.874;2023-05-20T12:14:49;101428.53;;;19.29;
46015;BME280;36844;51.898;-0.874;2023-05-20T12:17:14;101415.78;;;19.30;
46015;BME280;36844;51.898;-0.874;2023-05-20T12:19:39;101411.16;;;19.30;
46015;BME280;36844;51.898;-0.874;2023-05-20T12:22:05;101416.56;;;19.30;
46015;BME280;36844;51.898;-0.874;2023-05-20T12:24:30;101410.38;;;19.30;
46015;BME280;36844;51.898;-0.874;2023-05-20T12:26:55;101408.44;;;19.30;
46015;BME280;36844;51.898;-0.874;2023-05-20T12:29:21;101413.06;;;19.30;
46015;BME280;36844;51.898;-0.874;2023-05-20T12:31:46;101403.03;;;19.30;
46015;BME280;36844;51.898;-0.874;2023-05-20T12:34:11;101413.84;;;19.30;
46015;BME280;36844;51.898;-0.874;2023-05-20T12:36:37;101406.91;;;19.29;
46015;BME280;36844;51.898;-0.874;2023-05-20T12:39:02;101407.66;;;19.30;
46015;BME280;36844;51.898;-0.874;2023-05-20T12:41:27;101401.50;;;19.29;
46015;BME280;36844;51.898;-0.874;2023-05-20T12:43:52;101402.25;;;19.30;
46015;BME280;36844;51.898;-0.874;2023-05-20T12:46:18;101401.50;;;19.29;
46015;BME280;36844;51.898;-0.874;2023-05-20T12:48:43;101398.81;;;19.29;
46015;BME280;36844;51.898;-0.874;2023-05-20T12:51:08;101394.53;;;19.28;
46015;BME280;36844;51.898;-0.874;2023-05-20T12:53:33;101390.72;;;19.29;
46015;BME280;36844;51.898;-0.874;2023-05-20T12:55:59;101390.72;;;19.29;
46015;BME280;36844;51.898;-0.874;2023-05-20T12:58:25;101395.31;;;19.29;
46015;BME280;36844;51.898;-0.874;2023-05-20T13:00:50;101387.22;;;19.29;
46015;BME280;36844;51.898;-0.874;2023-05-20T13:03:15;101388.00;;;19.29;
46015;BME280;36844;51.898;-0.874;2023-05-20T13:05:40;101383.75;;;19.28;
46015;BME280;36844;51.898;-0.874;2023-05-20T13:08:05;101382.59;;;19.29;
46015;BME280;36844;51.898;-0.874;2023-05-20T13:10:32;101380.66;;;19.30;
46015;BME280;36844;51.898;-0.874;2023-05-20T13:12:58;101389.94;;;19.29;
46015;BME280;36844;51.898;-0.874;2023-05-20T13:15:23;101388.00;;;19.29;
46015;BME280;36844;51.898;-0.874;2023-05-20T13:17:48;101377.94;;;19.30;
46015;BME280;36844;51.898;-0.874;2023-05-20T13:20:14;101385.31;;;19.29;
46015;BME280;36844;51.898;-0.874;2023-05-20T13:22:39;101380.66;;;19.30;
46015;BME280;36844;51.898;-0.874;2023-05-20T13:25:04;101373.31;;;19.30;
46015;BME280;36844;51.898;-0.874;2023-05-20T13:27:30;101381.44;;;19.30;
46015;BME280;36844;51.898;-0.874;2023-05-20T13:29:55;101381.44;;;19.30;
46015;BME280;36844;51.898;-0.874;2023-05-20T13:32:21;101384.13;;;19.30;
46015;BME280;36844;51.898;-0.874;2023-05-20T13:34:46;101381.44;;;19.30;
46015;BME280;36844;51.898;-0.874;2023-05-20T13:37:11;101357.13;;;19.30;